< < Back
Terminal Aerodrome Forecast


Current Version              Previous Versions:   1  2  3  4  5  6  7  8  9  

Terminal Aerodrome Forecast

312
FTUS42 KFFC 270937 AAB
TAFATL
TAF AMD
KATL 270937Z 2710/2812 30007KT P6SM BKN050
     FM271400 31010G16KT P6SM SCT050
     FM271800 32012G22KT P6SM FEW060
     FM280200 33010KT P6SM SCT250=

Latest METAR

174
SAUS70 KWBC 271400
MTRATL
METAR KATL 271352Z 31007KT 10SM FEW055 02/M02 A2991 RMK AO2 SLP134
T00221017


USA.gov is the U.S. government's official web portal to all federal, state and local government web resources and services.